createdAt,value
2023-02-08T00:01:10.830Z,97.83
2023-02-08T00:03:40.187Z,98.32
2023-02-08T00:06:11.360Z,98.11
2023-02-08T00:08:39.836Z,99.03
2023-02-08T00:11:07.581Z,98.70
2023-02-08T00:13:35.068Z,99.88
2023-02-08T00:16:02.047Z,100.00
2023-02-08T00:18:29.249Z,99.07
2023-02-08T00:20:57.462Z,99.70
2023-02-08T00:23:25.530Z,100.00
2023-02-08T00:25:52.260Z,100.00
2023-02-08T00:28:20.176Z,100.00
2023-02-08T00:30:49.952Z,100.00
2023-02-08T00:33:16.889Z,100.00
2023-02-08T00:38:10.590Z,100.00
2023-02-08T00:40:38.158Z,99.73
2023-02-08T00:43:05.237Z,99.71
2023-02-08T00:45:33.431Z,100.00
2023-02-08T00:48:03.156Z,100.00
2023-02-08T00:50:30.039Z,100.00
2023-02-08T00:52:58.981Z,100.00
2023-02-08T00:55:25.808Z,100.00
2023-02-08T00:57:52.629Z,100.00
2023-02-08T01:00:19.619Z,100.00
2023-02-08T01:02:46.318Z,99.52
2023-02-08T01:05:13.108Z,100.00
2023-02-08T01:07:40.116Z,100.00
2023-02-08T01:10:09.555Z,100.00
2023-02-08T01:12:36.406Z,99.47
2023-02-08T01:15:03.393Z,99.55
2023-02-08T01:17:30.211Z,100.00
2023-02-08T01:19:57.075Z,100.00
2023-02-08T01:22:23.796Z,100.00
2023-02-08T01:24:53.666Z,100.00
2023-02-08T01:27:23.343Z,100.00
2023-02-08T01:29:53.732Z,100.00
2023-02-08T01:32:22.811Z,100.00
2023-02-08T01:34:49.529Z,100.00
2023-02-08T01:37:16.192Z,100.00
2023-02-08T01:39:42.931Z,100.00
2023-02-08T01:42:16.940Z,100.00
2023-02-08T01:44:48.607Z,100.00
2023-02-08T01:47:15.995Z,100.00
2023-02-08T01:49:42.890Z,100.00
2023-02-08T01:52:17.209Z,100.00
2023-02-08T01:54:45.728Z,100.00
2023-02-08T02:00:01.548Z,100.00
2023-02-08T02:02:29.847Z,100.00
2023-02-08T02:04:57.305Z,100.00
2023-02-08T02:07:28.868Z,100.00
2023-02-08T02:10:06.263Z,100.00
2023-02-08T02:12:35.764Z,100.00
2023-02-08T02:15:04.131Z,100.00
2023-02-08T02:17:31.120Z,100.00
2023-02-08T02:20:08.460Z,100.00
2023-02-08T02:22:44.611Z,100.00
2023-02-08T02:25:45.605Z,100.00
2023-02-08T02:28:39.883Z,100.00
2023-02-08T02:31:15.552Z,100.00
2023-02-08T02:33:45.623Z,100.00
2023-02-08T02:36:24.618Z,100.00
2023-02-08T02:39:03.039Z,100.00
2023-02-08T02:41:45.468Z,100.00
2023-02-08T02:44:34.741Z,100.00
2023-02-08T02:47:24.482Z,100.00
2023-02-08T02:50:01.866Z,100.00
2023-02-08T02:52:45.460Z,100.00
2023-02-08T02:55:16.984Z,100.00
2023-02-08T02:57:46.018Z,100.00
2023-02-08T03:00:20.043Z,100.00
2023-02-08T03:02:47.475Z,100.00
2023-02-08T03:05:14.765Z,100.00
2023-02-08T03:07:46.526Z,100.00
2023-02-08T03:10:22.096Z,100.00
2023-02-08T03:13:16.492Z,100.00
2023-02-08T03:15:44.540Z,100.00
2023-02-08T03:18:36.537Z,100.00
2023-02-08T03:21:25.197Z,100.00
2023-02-08T03:24:06.331Z,100.00
2023-02-08T03:26:44.566Z,100.00
2023-02-08T03:29:27.821Z,100.00
2023-02-08T03:32:04.428Z,100.00
2023-02-08T03:34:45.579Z,100.00
2023-02-08T03:37:28.453Z,100.00
2023-02-08T03:40:02.968Z,100.00
2023-02-08T03:42:33.492Z,100.00
2023-02-08T03:45:11.048Z,100.00
2023-02-08T03:47:41.239Z,100.00
2023-02-08T03:50:11.719Z,100.00
2023-02-08T03:55:23.601Z,100.00
2023-02-08T03:57:56.482Z,100.00
2023-02-08T04:00:23.935Z,100.00
2023-02-08T04:03:04.856Z,100.00
2023-02-08T04:05:31.903Z,100.00
2023-02-08T04:07:58.689Z,100.00
2023-02-08T04:10:25.448Z,100.00
2023-02-08T04:12:52.203Z,100.00
2023-02-08T04:15:19.090Z,100.00
2023-02-08T04:17:45.856Z,100.00
2023-02-08T04:20:13.173Z,100.00
2023-02-08T04:22:40.231Z,100.00
2023-02-08T04:25:08.393Z,100.00
2023-02-08T04:27:35.253Z,100.00
2023-02-08T04:30:02.563Z,100.00
2023-02-08T04:32:35.462Z,100.00
2023-02-08T04:35:02.158Z,100.00
2023-02-08T04:37:28.842Z,100.00
2023-02-08T04:39:55.568Z,100.00
2023-02-08T04:42:23.891Z,100.00
2023-02-08T04:44:50.716Z,100.00
2023-02-08T04:47:20.654Z,100.00
2023-02-08T04:49:50.798Z,100.00
2023-02-08T04:52:17.537Z,100.00
2023-02-08T04:54:47.599Z,100.00
2023-02-08T04:57:15.276Z,100.00
2023-02-08T04:59:42.215Z,100.00
2023-02-08T05:02:12.423Z,100.00
2023-02-08T05:04:39.165Z,100.00
2023-02-08T05:07:06.001Z,100.00
2023-02-08T05:09:35.587Z,100.00
2023-02-08T05:12:05.909Z,100.00
2023-02-08T05:14:34.995Z,100.00
2023-02-08T05:22:09.898Z,100.00
2023-02-08T05:24:36.750Z,100.00
2023-02-08T05:27:03.882Z,100.00
2023-02-08T05:29:33.678Z,100.00
2023-02-08T05:32:02.770Z,100.00
2023-02-08T05:34:29.483Z,100.00
2023-02-08T05:36:59.103Z,100.00
2023-02-08T05:39:29.096Z,100.00
2023-02-08T05:41:55.879Z,100.00
2023-02-08T05:44:22.729Z,100.00
2023-02-08T05:46:50.076Z,100.00
2023-02-08T05:49:16.915Z,100.00
2023-02-08T05:54:14.067Z,100.00
2023-02-08T05:56:40.956Z,100.00
2023-02-08T05:59:07.694Z,100.00
2023-02-08T06:01:35.210Z,100.00
2023-02-08T06:04:05.395Z,100.00
2023-02-08T06:06:35.805Z,100.00
2023-02-08T06:09:02.735Z,100.00
2023-02-08T06:11:29.693Z,100.00
2023-02-08T06:13:56.905Z,100.00
2023-02-08T06:16:23.903Z,100.00
2023-02-08T06:18:50.805Z,100.00
2023-02-08T06:21:17.778Z,100.00
2023-02-08T06:23:48.724Z,100.00
2023-02-08T06:26:15.520Z,100.00
2023-02-08T06:28:42.442Z,100.00
2023-02-08T06:31:09.115Z,100.00
2023-02-08T06:33:35.808Z,100.00
2023-02-08T06:36:02.609Z,100.00
2023-02-08T06:38:29.488Z,100.00
2023-02-08T06:40:56.262Z,100.00
2023-02-08T06:43:23.606Z,100.00
2023-02-08T06:45:50.321Z,100.00
2023-02-08T06:48:17.104Z,100.00
2023-02-08T06:53:10.555Z,100.00
2023-02-08T06:55:37.284Z,100.00
2023-02-08T06:58:04.082Z,100.00
2023-02-08T07:00:31.023Z,100.00
2023-02-08T07:02:59.080Z,100.00
2023-02-08T07:05:25.734Z,100.00
2023-02-08T07:07:53.792Z,100.00
2023-02-08T07:10:21.422Z,100.00
2023-02-08T07:12:48.132Z,100.00
2023-02-08T07:15:14.852Z,100.00
2023-02-08T07:17:41.589Z,100.00
2023-02-08T07:20:11.889Z,100.00
2023-02-08T07:22:39.770Z,100.00
2023-02-08T07:25:07.935Z,100.00
2023-02-08T07:27:37.999Z,100.00
2023-02-08T07:30:05.179Z,100.00
2023-02-08T07:32:34.586Z,100.00
2023-02-08T07:35:01.859Z,100.00
2023-02-08T07:37:28.591Z,100.00
2023-02-08T07:39:56.052Z,100.00
2023-02-08T07:42:23.152Z,100.00
2023-02-08T07:44:50.846Z,100.00
2023-02-08T07:47:17.667Z,100.00
2023-02-08T07:49:45.719Z,100.00
2023-02-08T07:52:12.443Z,99.94
2023-02-08T07:54:39.103Z,100.00
2023-02-08T07:57:05.736Z,99.46
2023-02-08T07:59:32.486Z,99.31
2023-02-08T08:01:59.250Z,97.67
2023-02-08T08:04:25.939Z,97.10
2023-02-08T08:06:53.908Z,97.11
2023-02-08T08:09:20.716Z,95.68
2023-02-08T08:11:47.488Z,95.51
2023-02-08T08:14:14.396Z,94.70
2023-02-08T08:16:42.640Z,93.41
2023-02-08T08:19:09.440Z,93.89
2023-02-08T08:21:36.209Z,93.81
2023-02-08T08:24:02.882Z,93.77
2023-02-08T08:26:30.158Z,92.60
2023-02-08T08:28:56.869Z,91.58
2023-02-08T08:31:23.766Z,90.89
2023-02-08T08:33:50.675Z,91.14
2023-02-08T08:36:17.401Z,90.87
2023-02-08T08:41:15.005Z,88.86
2023-02-08T08:43:41.941Z,88.54
2023-02-08T08:46:10.153Z,88.10
2023-02-08T08:48:38.489Z,86.65
2023-02-08T08:51:05.884Z,85.76
2023-02-08T08:53:33.089Z,84.96
2023-02-08T08:55:59.854Z,84.78
2023-02-08T08:58:26.528Z,83.23
2023-02-08T09:00:54.216Z,82.34
2023-02-08T09:03:20.948Z,82.54
2023-02-08T09:05:47.684Z,81.83
2023-02-08T09:08:14.583Z,80.28
2023-02-08T09:10:41.797Z,78.02
2023-02-08T09:13:09.286Z,76.97
2023-02-08T09:15:40.430Z,76.55
2023-02-08T09:18:07.536Z,74.14
2023-02-08T09:20:34.207Z,73.49
2023-02-08T09:23:00.927Z,72.09
2023-02-08T09:25:28.013Z,70.08
2023-02-08T09:27:54.761Z,67.38
2023-02-08T09:30:21.687Z,66.31
2023-02-08T09:32:48.366Z,64.46
2023-02-08T09:35:15.598Z,64.00
2023-02-08T09:37:42.496Z,63.47
2023-02-08T09:40:23.004Z,62.00
2023-02-08T09:43:19.568Z,61.70
2023-02-08T09:45:59.978Z,60.85
2023-02-08T09:48:39.291Z,61.17
2023-02-08T09:51:22.113Z,59.96
2023-02-08T09:53:55.191Z,59.33
2023-02-08T09:56:29.416Z,58.17
2023-02-08T09:58:57.535Z,57.12
2023-02-08T10:01:31.031Z,55.70
2023-02-08T10:04:22.530Z,54.83
2023-02-08T10:06:50.224Z,54.78
2023-02-08T10:09:21.056Z,54.79
2023-02-08T10:12:09.356Z,54.52
2023-02-08T10:14:45.763Z,53.81
2023-02-08T10:17:32.424Z,52.98
2023-02-08T10:20:23.775Z,53.02
2023-02-08T10:22:59.786Z,52.37
2023-02-08T10:25:39.417Z,52.48
2023-02-08T10:28:41.136Z,52.98
2023-02-08T10:31:45.738Z,51.55
2023-02-08T10:34:30.691Z,52.23
2023-02-08T10:36:57.446Z,52.01
2023-02-08T10:39:35.310Z,51.86
2023-02-08T10:42:03.304Z,50.82
2023-02-08T10:44:47.530Z,51.36
2023-02-08T10:47:36.411Z,51.68
2023-02-08T10:50:12.610Z,50.99
2023-02-08T10:52:39.599Z,51.32
2023-02-08T10:55:17.833Z,51.54
2023-02-08T10:57:46.219Z,50.38
2023-02-08T11:00:27.176Z,49.93
2023-02-08T11:02:56.593Z,49.63
2023-02-08T11:05:26.223Z,48.94
2023-02-08T11:08:23.701Z,49.22
2023-02-08T11:11:03.951Z,47.57
2023-02-08T11:13:38.576Z,47.69
2023-02-08T11:16:08.041Z,47.28
2023-02-08T11:18:45.774Z,46.67
2023-02-08T11:21:26.246Z,45.60
2023-02-08T11:23:54.739Z,44.60
2023-02-08T11:26:26.905Z,45.71
2023-02-08T11:29:10.033Z,45.94
2023-02-08T11:31:37.083Z,46.26
2023-02-08T11:34:06.315Z,44.51
2023-02-08T11:36:35.583Z,42.92
2023-02-08T11:39:15.557Z,42.41
2023-02-08T11:41:44.779Z,40.82
2023-02-08T11:44:20.960Z,41.68
2023-02-08T11:46:49.828Z,41.04
2023-02-08T11:49:23.957Z,37.44
2023-02-08T11:51:52.794Z,36.90
2023-02-08T11:54:39.460Z,35.95
2023-02-08T11:57:21.682Z,34.81
2023-02-08T11:59:50.160Z,35.96
2023-02-08T12:02:30.611Z,33.73
2023-02-08T12:04:59.497Z,33.39
2023-02-08T12:07:38.079Z,32.37
2023-02-08T12:10:07.742Z,34.02
2023-02-08T12:12:44.821Z,34.56
2023-02-08T12:15:26.523Z,33.59
2023-02-08T12:17:59.248Z,33.08
2023-02-08T12:20:37.953Z,30.82
2023-02-08T12:23:26.214Z,31.82
2023-02-08T12:26:17.689Z,33.76
2023-02-08T12:28:46.278Z,33.45
2023-02-08T12:31:42.961Z,32.67
2023-02-08T12:34:20.540Z,30.08
2023-02-08T12:37:45.764Z,30.95
2023-02-08T12:40:40.402Z,32.36
2023-02-08T12:43:25.371Z,29.98
2023-02-08T12:46:34.770Z,29.11
2023-02-08T12:49:37.000Z,29.69
2023-02-08T12:52:41.630Z,32.06
2023-02-08T12:55:29.942Z,32.67
2023-02-08T12:58:00.562Z,31.16
2023-02-08T13:00:32.502Z,32.02
2023-02-08T13:03:21.457Z,29.06
2023-02-08T13:06:01.659Z,31.30
2023-02-08T13:08:41.002Z,32.50
2023-02-08T13:11:21.346Z,32.35
2023-02-08T13:14:34.458Z,34.24
2023-02-08T13:17:17.252Z,31.87
2023-02-08T13:19:59.689Z,31.30
2023-02-08T13:22:31.562Z,33.52
2023-02-08T13:25:07.102Z,32.20
2023-02-08T13:27:34.731Z,32.29
2023-02-08T13:30:21.791Z,31.68
2023-02-08T13:32:50.896Z,31.59
2023-02-08T13:35:24.162Z,30.67
2023-02-08T13:37:59.900Z,31.12
2023-02-08T13:40:35.274Z,31.32
2023-02-08T13:43:34.962Z,31.12
2023-02-08T13:46:04.534Z,30.81
2023-02-08T13:51:33.995Z,32.44
2023-02-08T13:54:00.891Z,32.91
2023-02-08T13:59:42.113Z,32.40
2023-02-08T14:02:22.484Z,31.41
2023-02-08T14:04:52.859Z,31.50
2023-02-08T14:10:27.037Z,31.13
2023-02-08T14:13:03.191Z,32.41
2023-02-08T14:15:37.653Z,33.01
2023-02-08T14:18:16.619Z,33.11
2023-02-08T14:20:44.909Z,32.45
2023-02-08T14:23:24.693Z,32.64
2023-02-08T14:25:53.430Z,32.88
2023-02-08T14:28:28.006Z,32.81
2023-02-08T14:31:00.937Z,33.20
2023-02-08T14:33:31.213Z,32.47
2023-02-08T14:36:01.329Z,33.31
2023-02-08T14:38:45.938Z,33.61
2023-02-08T14:41:45.842Z,31.47
2023-02-08T14:47:27.793Z,32.19
2023-02-08T14:50:24.639Z,29.75
2023-02-08T14:53:07.893Z,28.77
2023-02-08T14:55:46.503Z,31.05
2023-02-08T14:58:30.168Z,32.24
2023-02-08T15:01:00.967Z,30.15
2023-02-08T15:03:31.866Z,30.68
2023-02-08T15:06:40.112Z,30.94
2023-02-08T15:09:22.062Z,30.36
2023-02-08T15:12:00.276Z,35.00
2023-02-08T15:14:28.934Z,39.75
2023-02-08T15:16:57.094Z,42.50
2023-02-08T15:19:32.135Z,44.31
2023-02-08T15:22:18.193Z,44.55
2023-02-08T15:24:45.951Z,45.75
2023-02-08T15:27:24.997Z,47.08
2023-02-08T15:29:52.411Z,47.16
2023-02-08T15:32:22.835Z,47.68
2023-02-08T15:34:59.562Z,44.38
2023-02-08T15:37:30.665Z,41.92
2023-02-08T15:39:59.109Z,39.11
2023-02-08T15:42:32.326Z,39.55
2023-02-08T15:45:00.838Z,40.50
2023-02-08T15:47:33.596Z,40.06
2023-02-08T15:50:01.321Z,40.85
2023-02-08T15:52:31.932Z,44.82
2023-02-08T15:54:58.978Z,46.85
2023-02-08T15:57:45.855Z,47.65
2023-02-08T16:00:23.886Z,48.72
2023-02-08T16:02:56.492Z,49.16
2023-02-08T16:05:26.960Z,49.51
2023-02-08T16:07:54.493Z,49.55
2023-02-08T16:10:42.955Z,49.70
2023-02-08T16:13:19.588Z,49.59
2023-02-08T16:15:51.977Z,49.34
2023-02-08T16:18:42.060Z,49.34
2023-02-08T16:21:27.037Z,48.93
2023-02-08T16:23:58.210Z,49.35
2023-02-08T16:26:35.834Z,49.57
2023-02-08T16:29:19.256Z,49.82
2023-02-08T16:31:55.986Z,50.24
2023-02-08T16:34:29.977Z,49.58
2023-02-08T16:37:07.246Z,50.30
2023-02-08T16:39:47.136Z,50.37
2023-02-08T16:42:25.335Z,50.14
2023-02-08T16:45:01.020Z,50.43
2023-02-08T16:47:38.640Z,50.79
2023-02-08T16:50:06.547Z,51.27
2023-02-08T16:52:34.182Z,51.73
2023-02-08T16:55:02.124Z,52.00
2023-02-08T17:00:35.165Z,51.08
2023-02-08T17:03:02.183Z,50.83
2023-02-08T17:05:32.187Z,50.55
2023-02-08T17:07:59.844Z,50.34
2023-02-08T17:10:30.130Z,50.00
2023-02-08T17:13:17.065Z,50.49
2023-02-08T17:15:46.431Z,50.88
2023-02-08T17:18:17.111Z,50.79
2023-02-08T17:23:11.737Z,51.45
2023-02-08T17:25:38.924Z,52.04
2023-02-08T17:28:15.094Z,53.53
2023-02-08T17:33:18.627Z,54.29
2023-02-08T17:35:47.185Z,54.68
2023-02-08T17:38:15.858Z,55.14
2023-02-08T17:43:11.858Z,55.29
2023-02-08T17:45:41.993Z,56.04
2023-02-08T17:48:16.055Z,55.79
2023-02-08T17:50:51.001Z,56.09
2023-02-08T17:53:18.693Z,56.14
2023-02-08T17:55:46.442Z,56.31
2023-02-08T17:58:13.770Z,56.20
2023-02-08T18:00:40.897Z,55.99
2023-02-08T18:03:07.786Z,56.04
2023-02-08T18:05:34.592Z,55.92
2023-02-08T18:08:01.879Z,55.86
2023-02-08T18:10:28.569Z,55.92
2023-02-08T18:12:55.440Z,56.02
2023-02-08T18:15:22.792Z,55.80
2023-02-08T18:17:56.448Z,56.08
2023-02-08T18:20:23.572Z,56.22
2023-02-08T18:22:50.530Z,55.42
2023-02-08T18:25:20.971Z,55.70
2023-02-08T18:27:50.952Z,55.87
2023-02-08T18:30:18.644Z,55.28
2023-02-08T18:32:48.335Z,55.52
2023-02-08T18:35:15.068Z,55.73
2023-02-08T18:37:41.930Z,55.77
2023-02-08T18:40:10.258Z,56.04
2023-02-08T18:42:37.399Z,56.18
2023-02-08T18:45:08.075Z,57.00
2023-02-08T18:47:40.441Z,56.81
2023-02-08T18:50:07.877Z,57.07
2023-02-08T18:52:35.186Z,58.56
2023-02-08T18:55:02.528Z,58.05
2023-02-08T18:57:29.285Z,57.42
2023-02-08T18:59:56.315Z,57.92
2023-02-08T19:02:23.725Z,57.51
2023-02-08T19:04:53.370Z,58.56
2023-02-08T19:07:20.342Z,58.90
2023-02-08T19:09:47.630Z,59.54
2023-02-08T19:12:15.866Z,59.02
2023-02-08T19:17:15.309Z,59.70
2023-02-08T19:19:42.506Z,59.54
2023-02-08T19:22:09.297Z,59.78
2023-02-08T19:24:42.049Z,59.94
2023-02-08T19:27:09.003Z,61.46
2023-02-08T19:29:36.026Z,61.67
2023-02-08T19:32:02.844Z,62.11
2023-02-08T19:34:37.655Z,62.19
2023-02-08T19:37:04.668Z,62.51
2023-02-08T19:39:31.610Z,62.77
2023-02-08T19:42:01.240Z,63.38
2023-02-08T19:44:30.494Z,63.16
2023-02-08T19:46:58.005Z,63.68
2023-02-08T19:49:28.588Z,64.40
2023-02-08T19:51:56.379Z,64.61
2023-02-08T19:54:23.332Z,63.51
2023-02-08T19:56:52.468Z,63.73
2023-02-08T19:59:26.189Z,63.57
2023-02-08T20:01:54.679Z,64.07
2023-02-08T20:04:22.402Z,64.21
2023-02-08T20:06:54.453Z,64.61
2023-02-08T20:09:22.571Z,65.04
2023-02-08T20:11:57.713Z,64.83
2023-02-08T20:14:27.021Z,65.74
2023-02-08T20:16:54.020Z,65.94
2023-02-08T20:19:21.663Z,66.28
2023-02-08T20:21:52.183Z,65.74
2023-02-08T20:24:19.057Z,66.17
2023-02-08T20:26:48.283Z,66.85
2023-02-08T20:29:15.769Z,67.03
2023-02-08T20:31:45.129Z,67.02
2023-02-08T20:34:16.595Z,67.23
2023-02-08T20:37:00.931Z,67.21
2023-02-08T20:39:35.010Z,67.91
2023-02-08T20:42:06.694Z,68.17
2023-02-08T20:44:33.669Z,68.16
2023-02-08T20:47:03.707Z,68.33
2023-02-08T20:49:33.915Z,68.32
2023-02-08T20:52:02.032Z,69.42
2023-02-08T20:54:31.995Z,69.36
2023-02-08T20:57:03.819Z,69.60
2023-02-08T21:02:24.448Z,70.82
2023-02-08T21:04:55.240Z,70.23
2023-02-08T21:07:22.702Z,71.25
2023-02-08T21:09:49.641Z,71.46
2023-02-08T21:12:18.973Z,71.10
2023-02-08T21:14:45.843Z,71.40
2023-02-08T21:17:12.799Z,71.96
2023-02-08T21:19:39.801Z,71.65
2023-02-08T21:22:07.023Z,72.51
2023-02-08T21:24:34.216Z,73.16
2023-02-08T21:27:01.556Z,73.57
2023-02-08T21:29:32.443Z,74.21
2023-02-08T21:31:59.477Z,74.63
2023-02-08T21:34:26.630Z,74.58
2023-02-08T21:36:53.607Z,74.85
2023-02-08T21:39:20.730Z,74.90
2023-02-08T21:41:48.729Z,75.13
2023-02-08T21:44:15.741Z,75.17
2023-02-08T21:46:43.016Z,74.94
2023-02-08T21:49:29.689Z,75.26
2023-02-08T21:52:24.441Z,75.45
2023-02-08T21:54:53.771Z,75.65
2023-02-08T21:57:37.991Z,75.47
2023-02-08T22:00:08.506Z,75.80
2023-02-08T22:02:35.319Z,76.51
2023-02-08T22:05:22.462Z,76.55
2023-02-08T22:07:55.158Z,76.86
2023-02-08T22:10:24.899Z,77.77
2023-02-08T22:12:56.288Z,77.99
2023-02-08T22:15:25.501Z,78.36
2023-02-08T22:17:54.117Z,78.08
2023-02-08T22:20:21.876Z,78.39
2023-02-08T22:22:53.091Z,79.36
2023-02-08T22:25:21.547Z,78.96
2023-02-08T22:27:48.599Z,79.82
2023-02-08T22:30:17.718Z,79.63
2023-02-08T22:32:46.167Z,79.64
2023-02-08T22:35:14.714Z,79.98
2023-02-08T22:37:41.688Z,80.27
2023-02-08T22:40:12.861Z,80.24
2023-02-08T22:42:40.869Z,80.19
2023-02-08T22:45:08.871Z,80.85
2023-02-08T22:47:39.253Z,80.22
2023-02-08T22:50:09.852Z,80.94
2023-02-08T22:52:36.628Z,80.54
2023-02-08T22:55:04.356Z,79.71
2023-02-08T22:57:32.577Z,79.54
2023-02-08T23:00:02.478Z,79.34
2023-02-08T23:02:29.241Z,79.50
2023-02-08T23:04:55.980Z,79.20
2023-02-08T23:07:23.266Z,79.91
2023-02-08T23:10:00.526Z,80.11
2023-02-08T23:12:27.272Z,80.93
2023-02-08T23:14:54.134Z,82.00
2023-02-08T23:17:20.860Z,82.34
2023-02-08T23:19:48.013Z,82.68
2023-02-08T23:22:14.763Z,83.05
2023-02-08T23:24:41.487Z,83.08
2023-02-08T23:27:08.284Z,82.78
2023-02-08T23:29:35.015Z,82.57
2023-02-08T23:32:05.334Z,82.07
2023-02-08T23:34:34.366Z,82.07
2023-02-08T23:37:01.222Z,82.75
2023-02-08T23:39:34.167Z,82.58
2023-02-08T23:42:01.065Z,82.94
2023-02-08T23:44:27.956Z,83.83
2023-02-08T23:46:55.115Z,83.13
2023-02-08T23:49:21.963Z,84.26
2023-02-08T23:51:48.729Z,84.62
2023-02-08T23:54:15.611Z,85.62
2023-02-08T23:56:42.685Z,86.18
2023-02-08T23:59:11.344Z,86.20
